Time;durP1;ratioP1;P1;durP2;ratioP2;P2;SDS_P1;SDS_P2;PMS_P1;PMS_P2;Temp;Humidity;BMP_temperature;BMP_pressure;BME280_temperature;BME280_humidity;BME280_pressure;Samples;Min_cycle;Max_cycle;Signal;HPM_P1;HPM_P2
2023/09/23 00:01:10;;;;;;;7.60;4.30;;;;;;;19.57;100.00;100918.86;109909;1240;63202;-70
2023/09/23 00:03:39;;;;;;;8.80;4.20;;;;;;;19.55;100.00;100917.65;109935;1239;61792;-72
2023/09/23 00:06:08;;;;;;;9.00;4.70;;;;;;;19.54;100.00;100914.67;109946;1241;74786;-70
2023/09/23 00:08:40;;;;;;;8.30;5.60;;;;;;;19.50;100.00;100913.47;109918;1240;62051;-75
2023/09/23 00:11:09;;;;;;;6.70;4.00;;;;;;;19.48;100.00;100916.39;109749;1241;69633;-71
2023/09/23 00:13:39;;;;;;;8.70;3.80;;;;;;;19.44;100.00;100920.48;109801;1242;74293;-73
2023/09/23 00:16:16;;;;;;;8.40;4.80;;;;;;;19.41;100.00;100924.55;109926;1238;62465;-68
2023/09/23 00:18:45;;;;;;;9.10;4.90;;;;;;;19.36;100.00;100924.85;109818;1240;58237;-67
2023/09/23 00:21:15;;;;;;;9.80;5.10;;;;;;;19.36;100.00;100927.37;109891;1239;74355;-69
2023/09/23 00:23:46;;;;;;;7.00;5.10;;;;;;;19.33;100.00;100922.13;109920;1241;62163;-67
2023/09/23 00:26:17;;;;;;;8.10;4.30;;;;;;;19.34;100.00;100919.44;109965;1239;59017;-69
2023/09/23 00:28:49;;;;;;;5.70;4.00;;;;;;;19.27;100.00;100921.02;109786;1241;73728;-69
2023/09/23 00:31:19;;;;;;;9.60;4.20;;;;;;;19.24;100.00;100920.85;109701;1241;58384;-68
2023/09/23 00:33:48;;;;;;;11.80;4.40;;;;;;;19.22;100.00;100921.04;109903;1239;58297;-68
2023/09/23 00:36:18;;;;;;;5.70;4.10;;;;;;;19.17;100.00;100918.77;109908;1239;62754;-68
2023/09/23 00:38:47;;;;;;;7.30;4.30;;;;;;;19.13;100.00;100917.38;109771;1241;61478;-68
2023/09/23 00:41:17;;;;;;;6.10;4.00;;;;;;;19.14;100.00;100920.33;109698;1240;59903;-68
2023/09/23 00:43:48;;;;;;;6.30;4.60;;;;;;;19.08;100.00;100919.68;109764;1240;64602;-68
2023/09/23 00:46:22;;;;;;;9.30;4.60;;;;;;;19.02;100.00;100915.34;109780;1241;58359;-68
2023/09/23 00:48:51;;;;;;;7.90;4.50;;;;;;;18.99;100.00;100915.52;109717;1241;60491;-68
2023/09/23 00:51:21;;;;;;;9.80;5.00;;;;;;;18.99;100.00;100906.84;109797;1238;74868;-73
2023/09/23 00:53:50;;;;;;;6.30;4.00;;;;;;;18.99;100.00;100905.94;109808;1242;62020;-67
2023/09/23 00:56:23;;;;;;;4.80;4.20;;;;;;;19.00;100.00;100904.16;109699;1240;59330;-68
2023/09/23 00:58:52;;;;;;;6.70;4.30;;;;;;;18.99;100.00;100902.86;109829;1240;73595;-67
2023/09/23 01:01:21;;;;;;;7.70;4.30;;;;;;;18.97;100.00;100909.55;109645;1239;63326;-69
2023/09/23 01:03:50;;;;;;;6.30;4.10;;;;;;;18.97;100.00;100909.75;109841;1239;59747;-69
2023/09/23 01:06:21;;;;;;;7.40;4.30;;;;;;;18.94;100.00;100915.49;109747;1240;74843;-68
2023/09/23 01:08:51;;;;;;;11.00;4.30;;;;;;;18.91;100.00;100913.92;109984;1239;61528;-72
2023/09/23 01:11:21;;;;;;;6.70;4.50;;;;;;;18.88;100.00;100914.94;109984;1238;59022;-73
2023/09/23 01:13:51;;;;;;;7.40;4.80;;;;;;;18.87;100.00;100920.95;109733;1240;73724;-74
2023/09/23 01:16:21;;;;;;;10.50;4.70;;;;;;;18.88;100.00;100922.32;109850;1241;61603;-75
2023/09/23 01:18:53;;;;;;;7.40;4.30;;;;;;;18.90;100.00;100918.29;109953;1239;61095;-73
2023/09/23 01:21:23;;;;;;;6.40;4.10;;;;;;;18.87;100.00;100922.11;109818;1241;74181;-73
2023/09/23 01:23:53;;;;;;;6.00;4.30;;;;;;;18.83;100.00;100926.93;109777;1238;73172;-76
2023/09/23 01:26:23;;;;;;;6.50;4.90;;;;;;;18.78;100.00;100924.06;109664;1241;59616;-76
2023/09/23 01:28:52;;;;;;;7.10;4.60;;;;;;;18.74;100.00;100918.95;109767;1242;63814;-76
2023/09/23 01:31:22;;;;;;;6.10;4.40;;;;;;;18.77;100.00;100918.90;109795;1242;57758;-75
2023/09/23 01:33:51;;;;;;;8.00;4.70;;;;;;;18.77;100.00;100913.88;109827;1241;58319;-75
2023/09/23 01:36:20;;;;;;;8.40;4.30;;;;;;;18.82;100.00;100909.26;109944;1238;73604;-75
2023/09/23 01:38:49;;;;;;;6.70;4.50;;;;;;;18.83;100.00;100902.91;109879;1238;71816;-73
2023/09/23 01:41:18;;;;;;;6.00;4.50;;;;;;;18.81;100.00;100905.02;109743;1240;70708;-73
2023/09/23 01:43:49;;;;;;;6.70;4.30;;;;;;;18.88;100.00;100905.25;109739;1240;74079;-73
2023/09/23 01:46:20;;;;;;;6.90;4.60;;;;;;;18.86;100.00;100904.58;109749;1241;63326;-73
2023/09/23 01:48:49;;;;;;;6.40;4.30;;;;;;;18.84;100.00;100905.44;109644;1240;61626;-73
2023/09/23 01:51:18;;;;;;;8.60;4.50;;;;;;;18.82;100.00;100906.90;109605;1240;74250;-75
2023/09/23 01:53:47;;;;;;;6.50;4.30;;;;;;;18.80;100.00;100911.70;109630;1241;71680;-75
2023/09/23 01:56:15;;;;;;;7.50;4.40;;;;;;;18.75;100.00;100916.45;109703;1239;62119;-75
2023/09/23 01:58:44;;;;;;;5.90;4.50;;;;;;;18.73;100.00;100914.15;109765;1241;74462;-75
2023/09/23 02:01:14;;;;;;;9.00;4.80;;;;;;;18.69;100.00;100917.43;109747;1240;58456;-75
2023/09/23 02:03:43;;;;;;;8.80;4.40;;;;;;;18.66;100.00;100922.16;109629;1240;58296;-74
2023/09/23 02:06:12;;;;;;;8.10;5.00;;;;;;;18.62;100.00;100927.27;109521;1240;62865;-74
2023/09/23 02:08:41;;;;;;;8.00;4.90;;;;;;;18.59;100.00;100930.46;109901;1239;62241;-76
2023/09/23 02:11:10;;;;;;;7.40;4.90;;;;;;;18.56;100.00;100928.77;109890;1239;59820;-73
2023/09/23 02:13:41;;;;;;;6.30;4.80;;;;;;;18.52;100.00;100927.91;109744;1240;64074;-75
2023/09/23 02:16:10;;;;;;;8.60;5.20;;;;;;;18.53;100.00;100929.52;109874;1238;64279;-75
2023/09/23 02:18:41;;;;;;;10.60;4.90;;;;;;;18.52;100.00;100931.84;109770;1241;60486;-73
2023/09/23 02:21:12;;;;;;;8.40;5.70;;;;;;;18.48;100.00;100931.55;109915;1240;74783;-74
2023/09/23 02:23:41;;;;;;;7.00;4.60;;;;;;;18.48;100.00;100926.06;109934;1239;61342;-74
2023/09/23 02:26:11;;;;;;;9.10;5.00;;;;;;;18.46;100.00;100923.12;109809;1240;59018;-73
2023/09/23 02:28:40;;;;;;;8.70;5.80;;;;;;;18.44;100.00;100921.16;109915;1238;74520;-74
2023/09/23 02:31:09;;;;;;;7.70;5.40;;;;;;;18.40;100.00;100917.73;109794;1242;62872;-74
2023/09/23 02:33:38;;;;;;;11.30;5.30;;;;;;;18.43;100.00;100920.81;109719;1241;58367;-72
2023/09/23 02:36:08;;;;;;;7.30;5.30;;;;;;;18.43;100.00;100925.05;109800;1242;63580;-77
2023/09/23 02:38:37;;;;;;;7.60;5.10;;;;;;;18.44;100.00;100923.50;109770;1240;71638;-73
2023/09/23 02:41:06;;;;;;;9.10;5.40;;;;;;;18.44;100.00;100922.92;109792;1239;71482;-76
2023/09/23 02:43:40;;;;;;;7.50;4.90;;;;;;;18.44;100.00;100925.42;109886;1241;73599;-76
2023/09/23 02:46:09;;;;;;;;;;;;;;;18.45;100.00;100924.30;109777;1241;63330;-76
2023/09/23 02:48:38;;;;;;;8.50;5.80;;;;;;;18.45;100.00;100924.77;109931;1240;61346;-75
2023/09/23 02:51:07;;;;;;;10.40;5.60;;;;;;;18.41;100.00;100921.84;109815;1239;75222;-75
2023/09/23 02:53:36;;;;;;;9.20;6.00;;;;;;;18.36;100.00;100921.53;109924;1238;72592;-76
2023/09/23 02:56:07;;;;;;;11.30;6.30;;;;;;;18.36;100.00;100927.48;109773;1242;59361;-75
2023/09/23 02:58:38;;;;;;;10.30;6.40;;;;;;;18.37;100.00;100930.07;109683;1240;73609;-75
2023/09/23 03:01:14;;;;;;;10.40;6.00;;;;;;;18.38;100.00;100932.23;109757;1242;57770;-75
2023/09/23 03:03:43;;;;;;;10.80;6.40;;;;;;;18.37;100.00;100933.34;109603;1240;60339;-75
2023/09/23 03:06:14;;;;;;;10.50;6.30;;;;;;;18.35;100.00;100933.27;109894;1239;62643;-76
2023/09/23 03:08:47;;;;;;;11.30;5.90;;;;;;;18.34;100.00;100935.35;109924;1240;63386;-76
2023/09/23 03:11:18;;;;;;;11.60;7.00;;;;;;;18.36;100.00;100935.81;109894;1240;70882;-76
2023/09/23 03:13:49;;;;;;;8.80;6.70;;;;;;;18.37;100.00;100931.21;109905;1238;63690;-76
2023/09/23 03:16:28;;;;;;;9.90;7.20;;;;;;;18.38;100.00;100928.89;109705;1242;58358;-76
2023/09/23 03:19:15;;;;;;;11.30;7.40;;;;;;;18.33;100.00;100930.64;109814;1242;58295;-76
2023/09/23 03:21:45;;;;;;;10.40;6.60;;;;;;;18.34;100.00;100935.61;109952;1239;74519;-75
2023/09/23 03:24:15;;;;;;;8.60;6.20;;;;;;;18.33;100.00;100936.85;109850;1241;62018;-73
2023/09/23 03:26:46;;;;;;;9.00;6.70;;;;;;;18.32;100.00;100931.20;109864;1237;70433;-74
2023/09/23 03:29:17;;;;;;;8.70;6.80;;;;;;;18.32;100.00;100932.35;109951;1240;74127;-74
2023/09/23 03:31:47;;;;;;;9.10;6.60;;;;;;;18.25;100.00;100934.34;109843;1241;62358;-73
2023/09/23 03:34:17;;;;;;;8.20;6.90;;;;;;;18.22;100.00;100935.00;109745;1239;57828;-73
2023/09/23 03:36:46;;;;;;;7.70;6.20;;;;;;;18.22;100.00;100934.02;109614;1240;74241;-75
2023/09/23 03:39:17;;;;;;;10.90;6.60;;;;;;;18.23;100.00;100927.37;109798;1242;61986;-76
2023/09/23 03:41:46;;;;;;;12.70;7.60;;;;;;;18.24;100.00;100930.67;109784;1242;59967;-74
2023/09/23 03:44:16;;;;;;;9.30;6.50;;;;;;;18.21;100.00;100935.89;109687;1239;63175;-74
2023/09/23 03:46:47;;;;;;;9.40;6.80;;;;;;;18.23;100.00;100935.64;109532;1245;58427;-76
2023/09/23 03:49:17;;;;;;;16.20;7.40;;;;;;;18.24;100.00;100939.47;109655;1239;60212;-76
2023/09/23 03:51:46;;;;;;;10.00;7.50;;;;;;;18.21;100.00;100938.73;109763;1241;64032;-76
2023/09/23 03:54:17;;;;;;;9.80;8.00;;;;;;;18.19;100.00;100938.16;109816;1242;60863;-76
2023/09/23 03:56:47;;;;;;;11.40;7.50;;;;;;;18.14;100.00;100938.35;109950;1239;70085;-75
2023/09/23 03:59:16;;;;;;;11.30;7.30;;;;;;;18.07;100.00;100931.48;109677;1241;74523;-74
2023/09/23 04:01:45;;;;;;;13.80;7.70;;;;;;;18.09;100.00;100940.43;109797;1241;58341;-74
2023/09/23 04:04:14;;;;;;;13.40;8.10;;;;;;;18.04;100.00;100948.19;109579;1242;61267;-73
2023/09/23 04:06:43;;;;;;;9.40;7.50;;;;;;;18.03;100.00;100950.91;109693;1242;74684;-74
2023/09/23 04:09:13;;;;;;;12.20;7.70;;;;;;;18.10;100.00;100954.31;109896;1241;72080;-78
2023/09/23 04:11:42;;;;;;;15.40;8.10;;;;;;;18.11;100.00;100955.98;109876;1240;70263;-74
2023/09/23 04:14:11;;;;;;;13.00;8.00;;;;;;;18.17;100.00;100962.42;109878;1239;73138;-74
2023/09/23 04:16:40;;;;;;;12.20;8.50;;;;;;;18.17;100.00;100967.12;109767;1239;62594;-75
2023/09/23 04:19:09;;;;;;;17.20;7.80;;;;;;;18.20;100.00;100964.20;109889;1239;58178;-73
2023/09/23 04:21:38;;;;;;;11.90;7.50;;;;;;;18.25;100.00;100961.16;109928;1241;63215;-76
2023/09/23 04:24:07;;;;;;;11.00;7.80;;;;;;;18.29;100.00;100967.84;109835;1241;61835;-74
2023/09/23 04:26:36;;;;;;;10.70;7.70;;;;;;;18.29;100.00;100972.27;109987;1239;60003;-76
2023/09/23 04:29:05;;;;;;;12.90;8.20;;;;;;;18.34;100.00;100976.01;109985;1240;63145;-75
2023/09/23 04:31:34;;;;;;;15.00;8.20;;;;;;;18.44;100.00;100973.01;109760;1241;58338;-75
2023/09/23 04:34:03;;;;;;;17.00;8.40;;;;;;;18.51;100.00;100975.52;110023;1238;61133;-74
2023/09/23 04:36:32;;;;;;;9.90;7.60;;;;;;;18.55;100.00;100984.23;109867;1238;64196;-75
2023/09/23 04:39:04;;;;;;;12.40;7.70;;;;;;;18.62;100.00;100986.01;110000;1238;62131;-75
2023/09/23 04:41:34;;;;;;;10.90;7.40;;;;;;;18.68;100.00;100984.17;109986;1238;70039;-76
2023/09/23 04:44:03;;;;;;;11.90;7.20;;;;;;;18.68;100.00;100986.48;110010;1238;74269;-75
2023/09/23 04:46:33;;;;;;;11.40;7.20;;;;;;;18.72;100.00;100985.20;109955;1241;57724;-73
2023/09/23 04:49:02;;;;;;;11.20;7.30;;;;;;;18.71;100.00;100985.88;109997;1238;57635;-73
2023/09/23 04:51:31;;;;;;;11.90;7.20;;;;;;;18.71;100.00;100988.27;109937;1241;73544;-74
2023/09/23 04:54:01;;;;;;;16.70;8.30;;;;;;;18.75;100.00;100988.80;109982;1238;62979;-73
2023/09/23 04:56:30;;;;;;;10.80;7.50;;;;;;;18.71;100.00;100981.77;109990;1238;70275;-73
2023/09/23 04:58:59;;;;;;;12.30;7.60;;;;;;;18.79;100.00;100995.62;110012;1238;74506;-76
2023/09/23 05:01:28;;;;;;;10.60;6.70;;;;;;;18.92;100.00;100999.27;110018;1238;63032;-76
2023/09/23 05:03:59;;;;;;;13.70;7.30;;;;;;;18.98;100.00;100997.36;109932;1238;61609;-76
2023/09/23 05:06:29;;;;;;;13.20;7.20;;;;;;;19.06;100.00;101001.79;109928;1239;75027;-76
2023/09/23 05:08:58;;;;;;;13.10;7.10;;;;;;;19.16;100.00;101008.23;110060;1238;72923;-75
2023/09/23 05:11:28;;;;;;;17.00;7.90;;;;;;;19.22;100.00;101014.42;110045;1238;59542;-72
2023/09/23 05:13:57;;;;;;;13.60;7.90;;;;;;;19.32;100.00;101021.02;109917;1238;63446;-73
2023/09/23 05:16:27;;;;;;;14.70;8.40;;;;;;;19.45;100.00;101028.48;109599;1242;61997;-73
2023/09/23 05:18:55;;;;;;;13.90;8.30;;;;;;;19.54;100.00;101031.09;109808;1238;61062;-73
2023/09/23 05:21:25;;;;;;;18.70;8.60;;;;;;;19.53;100.00;101030.55;109837;1239;74370;-76
2023/09/23 05:23:56;;;;;;;16.50;7.90;;;;;;;19.58;100.00;101029.71;109946;1238;72099;-72
2023/09/23 05:26:25;;;;;;;10.60;8.70;;;;;;;19.54;100.00;101033.36;109953;1238;69918;-74
2023/09/23 05:28:56;;;;;;;12.60;8.70;;;;;;;19.61;100.00;101034.94;109970;1238;73407;-74
2023/09/23 05:31:25;;;;;;;14.00;9.00;;;;;;;19.72;100.00;101037.27;109970;1240;63230;-73
2023/09/23 05:33:54;;;;;;;12.90;9.20;;;;;;;19.77;100.00;101042.00;109980;1238;58356;-73
2023/09/23 05:36:23;;;;;;;15.40;9.00;;;;;;;19.89;100.00;101043.21;109863;1238;63726;-74
2023/09/23 05:38:52;;;;;;;13.00;8.30;;;;;;;20.00;100.00;101040.88;109895;1238;61632;-73
2023/09/23 05:41:23;;;;;;;12.80;7.80;;;;;;;20.08;100.00;101039.41;109958;1239;59987;-75
2023/09/23 05:43:53;;;;;;;11.80;7.90;;;;;;;20.14;100.00;101034.36;109954;1238;73757;-75
2023/09/23 05:46:22;;;;;;;14.30;8.90;;;;;;;20.27;100.00;101045.38;109953;1237;58615;-74
2023/09/23 05:48:51;;;;;;;11.40;8.50;;;;;;;20.36;100.00;101051.98;109992;1237;58365;-76
2023/09/23 05:51:20;;;;;;;17.70;8.70;;;;;;;20.50;100.00;101055.92;109882;1238;64381;-74
2023/09/23 05:53:49;;;;;;;10.60;7.80;;;;;;;20.59;100.00;101059.54;109940;1238;72792;-74
2023/09/23 05:56:18;;;;;;;12.00;8.30;;;;;;;20.63;100.00;101064.05;110013;1238;70319;-76
2023/09/23 05:58:50;;;;;;;12.70;7.50;;;;;;;20.79;100.00;101065.39;109790;1242;74359;-77
2023/09/23 06:01:19;;;;;;;14.00;7.40;;;;;;;20.85;100.00;101061.30;109982;1239;58396;-76
2023/09/23 06:03:50;;;;;;;12.10;7.90;;;;;;;21.00;100.00;101055.38;109962;1238;60671;-68
2023/09/23 06:06:19;;;;;;;10.60;7.30;;;;;;;21.15;100.00;101050.59;109988;1238;72968;-67
2023/09/23 06:08:48;;;;;;;13.40;8.60;;;;;;;21.19;100.00;101051.17;109784;1239;72020;-67
2023/09/23 06:11:18;;;;;;;15.60;8.10;;;;;;;21.16;100.00;101051.13;109936;1238;60604;-67
2023/09/23 06:13:47;;;;;;;12.20;8.40;;;;;;;21.11;100.00;101054.19;109854;1238;73794;-67
2023/09/23 06:16:17;;;;;;;8.50;6.60;;;;;;;21.07;100.00;101057.95;109999;1241;58305;-67
2023/09/23 06:18:46;;;;;;;13.60;6.80;;;;;;;21.13;100.00;101061.71;109978;1238;58210;-67
2023/09/23 06:21:15;;;;;;;15.00;7.70;;;;;;;21.29;100.00;101058.89;109995;1238;63291;-67
2023/09/23 06:23:45;;;;;;;17.10;8.80;;;;;;;21.38;100.00;101061.26;109932;1238;72141;-68
2023/09/23 06:26:14;;;;;;;14.50;7.50;;;;;;;21.38;100.00;101061.56;109886;1237;60605;-67
2023/09/23 06:28:43;;;;;;;13.50;7.80;;;;;;;21.46;100.00;101061.11;109858;1240;63237;-67
2023/09/23 06:31:12;;;;;;;13.50;7.70;;;;;;;21.52;100.00;101065.02;109919;1239;58480;-69
2023/09/23 06:33:42;;;;;;;12.20;6.60;;;;;;;21.67;100.00;101066.27;109860;1239;58362;-68
2023/09/23 06:36:11;;;;;;;9.70;6.50;;;;;;;21.65;100.00;101067.08;109840;1239;74538;-68
2023/09/23 06:38:40;;;;;;;9.40;6.60;;;;;;;21.75;100.00;101071.96;109764;1240;72695;-68
2023/09/23 06:41:09;;;;;;;14.60;6.90;;;;;;;21.76;100.00;101064.35;109835;1239;70855;-68
2023/09/23 06:43:38;;;;;;;13.20;7.00;;;;;;;21.82;100.00;101068.84;109687;1241;73658;-68
2023/09/23 06:46:07;;;;;;;9.10;6.70;;;;;;;21.84;100.00;101068.46;109815;1240;58202;-67
2023/09/23 06:48:36;;;;;;;11.10;6.40;;;;;;;21.88;100.00;101070.70;109691;1241;58359;-68
2023/09/23 06:51:05;;;;;;;9.10;6.50;;;;;;;22.06;100.00;101075.34;109810;1238;73482;-68
2023/09/23 06:53:35;;;;;;;10.10;5.60;;;;;;;22.03;100.00;101072.10;109773;1240;72944;-68
2023/09/23 06:56:04;;;;;;;12.70;7.10;;;;;;;22.03;100.00;101070.91;109575;1239;70269;-67
2023/09/23 06:58:33;;;;;;;15.40;6.80;;;;;;;22.14;100.00;101069.65;109807;1239;73883;-67
2023/09/23 07:01:02;;;;;;;10.20;5.80;;;;;;;22.19;100.00;101070.61;109827;1238;57807;-70
2023/09/23 07:03:31;;;;;;;11.70;6.80;;;;;;;22.15;100.00;101072.66;109819;1238;57666;-68
2023/09/23 07:06:00;;;;;;;10.40;5.80;;;;;;;22.11;100.00;101071.73;109920;1239;63036;-69
2023/09/23 07:08:29;;;;;;;9.60;5.50;;;;;;;22.16;100.00;101075.92;109908;1239;61609;-66
2023/09/23 07:10:58;;;;;;;10.30;5.40;;;;;;;22.21;100.00;101075.35;109945;1238;59174;-69
2023/09/23 07:13:27;;;;;;;10.00;5.60;;;;;;;22.25;100.00;101083.08;109854;1238;73806;-69
2023/09/23 07:15:56;;;;;;;8.10;5.30;;;;;;;22.38;100.00;101084.69;109767;1239;63845;-69
2023/09/23 07:18:26;;;;;;;7.50;5.10;;;;;;;22.54;100.00;101086.06;109792;1238;61124;-69
2023/09/23 07:20:58;;;;;;;9.00;5.50;;;;;;;22.59;100.00;101085.81;109787;1239;74181;-69
2023/09/23 07:23:27;;;;;;;7.70;5.00;;;;;;;22.55;100.00;101092.13;109598;1238;62172;-69
2023/09/23 07:25:56;;;;;;;11.10;5.70;;;;;;;22.43;100.00;101088.41;109796;1238;61046;-69
2023/09/23 07:28:25;;;;;;;6.90;5.10;;;;;;;22.44;100.00;101087.36;109743;1238;73127;-68
2023/09/23 07:30:55;;;;;;;9.50;5.90;;;;;;;22.72;100.00;101091.05;109668;1239;62634;-70
2023/09/23 07:33:25;;;;;;;10.20;5.60;;;;;;;22.89;100.00;101097.07;109792;1238;61632;-73
2023/09/23 07:35:54;;;;;;;7.60;5.00;;;;;;;22.99;100.00;101102.65;109727;1239;73820;-70
2023/09/23 07:38:23;;;;;;;10.00;6.00;;;;;;;22.99;100.00;101100.27;109729;1239;72517;-70
2023/09/23 07:40:53;;;;;;;10.10;5.50;;;;;;;23.11;100.00;101102.74;109781;1238;70138;-70
2023/09/23 07:43:22;;;;;;;7.60;5.00;;;;;;;22.83;100.00;101103.04;109620;1241;74929;-69
2023/09/23 07:45:52;;;;;;;8.50;5.50;;;;;;;22.87;100.00;101102.79;109726;1239;58347;-69
2023/09/23 07:48:21;;;;;;;8.90;5.60;;;;;;;23.03;100.00;101102.79;109756;1238;60353;-70
2023/09/23 07:50:50;;;;;;;10.80;5.90;;;;;;;22.94;100.00;101105.14;109762;1239;65595;-68
2023/09/23 07:53:20;;;;;;;9.70;5.80;;;;;;;22.78;100.00;101108.64;109453;1238;360114;-70
2023/09/23 07:55:49;;;;;;;9.50;5.60;;;;;;;22.78;100.00;101105.07;109809;1239;68552;-69
2023/09/23 07:58:18;;;;;;;8.70;5.90;;;;;;;22.91;100.00;101099.23;109721;1238;62914;-70
2023/09/23 08:00:48;;;;;;;9.10;5.00;;;;;;;23.22;100.00;101105.17;109773;1239;57788;-69
2023/09/23 08:03:17;;;;;;;9.70;5.70;;;;;;;23.30;100.00;101110.66;109740;1238;60631;-68
2023/09/23 08:05:46;;;;;;;12.70;5.80;;;;;;;23.31;100.00;101112.31;109801;1237;64014;-68
2023/09/23 08:08:15;;;;;;;8.10;5.70;;;;;;;23.39;100.00;101113.12;109828;1240;61682;-69
2023/09/23 08:10:44;;;;;;;7.80;5.90;;;;;;;23.59;100.00;101106.45;109788;1239;59200;-69
2023/09/23 08:13:13;;;;;;;9.00;5.60;;;;;;;23.56;100.00;101106.05;109808;1238;72013;-69
2023/09/23 08:15:42;;;;;;;7.20;5.50;;;;;;;23.62;100.00;101098.91;109813;1238;57737;-68
2023/09/23 08:18:12;;;;;;;13.80;6.70;;;;;;;23.69;100.00;101093.42;109834;1238;57813;-69
2023/09/23 08:20:41;;;;;;;12.10;6.50;;;;;;;23.82;100.00;101091.68;109952;1239;63060;-70
2023/09/23 08:23:10;;;;;;;8.80;6.70;;;;;;;23.89;100.00;101089.76;109871;1237;61161;-69
2023/09/23 08:25:40;;;;;;;8.90;5.90;;;;;;;23.90;100.00;101085.13;109951;1238;60106;-70
2023/09/23 08:28:09;;;;;;;9.10;5.90;;;;;;;23.87;100.00;101079.97;109897;1241;63247;-69
2023/09/23 08:30:38;;;;;;;7.60;6.20;;;;;;;24.03;100.00;101078.00;109851;1239;60858;-71
2023/09/23 08:33:07;;;;;;;9.90;6.90;;;;;;;23.92;100.00;101081.77;110043;1238;58988;-70
2023/09/23 08:35:37;;;;;;;7.50;6.20;;;;;;;23.83;100.00;101079.63;110036;1238;74326;-70
2023/09/23 08:38:06;;;;;;;11.00;6.00;;;;;;;24.10;100.00;101079.29;109924;1238;71249;-70
2023/09/23 08:40:36;;;;;;;9.40;5.80;;;;;;;24.25;100.00;101083.17;109974;1240;59967;-70
2023/09/23 08:43:06;;;;;;;11.20;6.30;;;;;;;24.18;100.00;101085.24;109953;1238;73842;-70
2023/09/23 08:45:43;;;;;;;9.20;5.70;;;;;;;24.33;100.00;101081.61;109937;1238;58434;-70
2023/09/23 08:48:13;;;;;;;9.70;5.60;;;;;;;24.67;100.00;101080.58;109775;1238;60359;-69
2023/09/23 08:50:43;;;;;;;9.10;5.60;;;;;;;24.77;100.00;101082.51;109738;1238;63476;-70
2023/09/23 08:53:15;;;;;;;9.10;5.10;;;;;;;24.97;100.00;101085.98;109979;1238;72119;-69
2023/09/23 08:55:45;;;;;;;11.00;5.30;;;;;;;25.18;100.00;101089.66;109891;1241;59540;-68
2023/09/23 08:58:14;;;;;;;9.00;5.00;;;;;;;25.39;100.00;101091.05;109953;1238;73882;-68
2023/09/23 09:00:46;;;;;;;10.40;5.10;;;;;;;25.60;100.00;101087.10;109895;1238;57709;-68
2023/09/23 09:03:15;;;;;;;;;;;;;;;25.63;100.00;101084.95;109987;1238;60443;-67
2023/09/23 09:05:46;;;;;;;10.70;5.20;;;;;;;25.42;100.00;101080.39;109990;1238;66837;-68
2023/09/23 09:08:18;;;;;;;10.60;5.40;;;;;;;25.50;100.00;101083.56;109967;1238;71905;-69
2023/09/23 09:10:47;;;;;;;7.00;4.70;;;;;;;25.58;100.00;101083.58;109852;1238;60811;-69
2023/09/23 09:13:17;;;;;;;8.90;4.80;;;;;;;25.53;100.00;101084.52;109858;1238;63264;-68
2023/09/23 09:15:46;;;;;;;10.80;5.50;;;;;;;25.52;100.00;101081.23;109868;1239;58511;-68
2023/09/23 09:18:17;;;;;;;8.00;5.10;;;;;;;25.77;100.00;101082.92;109815;1239;58339;-68
2023/09/23 09:20:46;;;;;;;6.10;4.50;;;;;;;26.04;100.00;101081.18;109752;1238;74494;-68
2023/09/23 09:23:16;;;;;;;10.20;5.10;;;;;;;26.16;100.00;101088.28;109781;1238;72109;-68
2023/09/23 09:25:47;;;;;;;9.40;4.40;;;;;;;26.07;100.00;101085.67;109840;1238;70037;-67
2023/09/23 09:28:19;;;;;;;10.50;4.80;;;;;;;26.31;100.00;101081.30;109538;1238;74344;-68
2023/09/23 09:30:56;;;;;;;7.10;4.10;;;;;;;26.27;100.00;101076.06;109810;1238;60053;-69
2023/09/23 09:33:27;;;;;;;6.90;3.70;;;;;;;26.33;100.00;101075.79;109589;1237;58289;-68
2023/09/23 09:35:57;;;;;;;8.00;4.30;;;;;;;26.44;100.00;101072.75;109745;1241;63729;-69
2023/09/23 09:38:28;;;;;;;7.60;4.10;;;;;;;26.35;100.00;101070.60;109571;1238;62796;-69
2023/09/23 09:41:04;;;;;;;8.60;4.50;;;;;;;26.34;100.00;101070.31;109710;1238;71357;-69
2023/09/23 09:43:33;;;;;;;6.30;4.10;;;;;;;26.69;100.00;101072.08;109622;1241;63766;-68
2023/09/23 09:46:08;;;;;;;9.40;4.80;;;;;;;26.92;100.00;101075.14;109730;1241;57891;-69
2023/09/23 09:48:41;;;;;;;6.20;4.10;;;;;;;26.98;100.00;101077.19;109822;1241;57823;-67
2023/09/23 09:51:15;;;;;;;6.20;4.20;;;;;;;27.13;100.00;101074.82;109740;1241;62969;-68
2023/09/23 09:53:45;;;;;;;10.10;4.30;;;;;;;27.20;100.00;101076.86;109664;1241;63368;-71
2023/09/23 09:56:16;;;;;;;7.60;4.20;;;;;;;27.43;100.00;101073.55;109699;1238;70221;-68
2023/09/23 09:58:48;;;;;;;5.50;3.60;;;;;;;27.52;100.00;101068.15;109592;1241;65460;-69
2023/09/23 10:01:17;;;;;;;12.20;4.70;;;;;;;27.29;100.00;101063.88;109798;1241;61623;-68
2023/09/23 10:03:50;;;;;;;7.00;4.10;;;;;;;26.91;100.00;101064.46;109803;1238;61406;-69
2023/09/23 10:06:23;;;;;;;9.80;3.70;;;;;;;27.21;100.00;101064.11;109697;1241;63639;-69
2023/09/23 10:08:53;;;;;;;6.40;4.20;;;;;;;27.43;100.00;101063.95;109556;1244;61144;-69
2023/09/23 10:11:37;;;;;;;8.50;4.30;;;;;;;27.35;100.00;101055.94;109782;1238;71471;-67
2023/09/23 10:14:16;;;;;;;11.10;4.40;;;;;;;27.43;100.00;101062.05;109742;1238;63805;-67
2023/09/23 10:16:51;;;;;;;8.90;4.40;;;;;;;27.52;100.00;101047.60;109837;1241;61313;-68
2023/09/23 10:19:33;;;;;;;10.50;4.20;;;;;;;27.77;100.00;101043.98;109714;1239;60733;-67
2023/09/23 10:22:17;;;;;;;8.80;4.10;;;;;;;27.95;100.00;101039.38;109758;1242;63629;-68
2023/09/23 10:25:04;;;;;;;8.70;4.00;;;;;;;27.80;99.61;101042.43;109895;1241;71456;-67
2023/09/23 10:27:36;;;;;;;7.50;4.10;;;;;;;28.19;97.48;101039.44;109704;1242;61694;-68
2023/09/23 10:30:06;;;;;;;9.40;3.50;;;;;;;28.69;95.48;101039.54;109845;1240;63449;-68
2023/09/23 10:32:35;;;;;;;9.10;3.70;;;;;;;28.87;93.34;101034.55;109717;1241;57822;-68
2023/09/23 10:35:05;;;;;;;7.80;3.50;;;;;;;29.38;91.63;101028.41;109692;1241;58355;-68
2023/09/23 10:37:36;;;;;;;8.30;3.70;;;;;;;29.68;88.19;101027.09;109723;1238;73220;-68
2023/09/23 10:40:17;;;;;;;7.40;3.50;;;;;;;29.15;89.67;101028.02;109753;1240;61795;-68
2023/09/23 10:42:46;;;;;;;7.40;3.40;;;;;;;29.18;89.00;101031.55;109677;1241;68785;-69
2023/09/23 10:45:20;;;;;;;8.40;3.70;;;;;;;29.20;88.19;101030.89;109528;1244;62603;-70
2023/09/23 10:47:50;;;;;;;8.80;3.70;;;;;;;29.43;87.39;101032.38;109702;1239;57786;-69
2023/09/23 10:50:20;;;;;;;8.00;3.60;;;;;;;29.76;86.03;101033.98;109800;1238;58319;-70
2023/09/23 10:52:49;;;;;;;8.10;3.90;;;;;;;29.38;87.75;101039.19;109697;1238;73022;-69
2023/09/23 10:55:18;;;;;;;5.70;3.60;;;;;;;29.68;86.09;101033.23;109734;1238;61678;-69
2023/09/23 10:57:48;;;;;;;7.50;3.50;;;;;;;30.10;84.41;101036.30;109816;1238;59270;-70
2023/09/23 11:00:18;;;;;;;9.80;4.10;;;;;;;30.25;83.26;101034.52;109709;1238;65156;-70
2023/09/23 11:02:54;;;;;;;8.30;3.80;;;;;;;30.23;84.18;101026.89;109701;1240;60394;-70
2023/09/23 11:05:24;;;;;;;7.90;3.60;;;;;;;30.17;82.84;101025.77;109725;1239;60667;-70
2023/09/23 11:07:56;;;;;;;8.00;3.70;;;;;;;30.09;82.50;101020.77;109629;1238;64276;-69
2023/09/23 11:10:27;;;;;;;9.10;4.20;;;;;;;30.50;81.81;101022.19;109697;1238;60930;-70
2023/09/23 11:12:56;;;;;;;5.60;3.50;;;;;;;30.59;80.99;101021.96;109776;1238;60023;-68
2023/09/23 11:15:26;;;;;;;9.60;3.80;;;;;;;30.56;81.07;101017.23;109770;1238;73848;-69
2023/09/23 11:17:55;;;;;;;5.90;3.30;;;;;;;29.86;82.44;101010.77;109972;1238;61787;-68
2023/09/23 11:20:32;;;;;;;6.40;3.50;;;;;;;29.83;83.11;101010.16;109770;1240;57853;-70